sensor_id;sensor_type;location;lat;lon;timestamp;temperature;humidity
64874;HTU21D;51367;45.204;38.576;2023-02-14T00:01:44;-0.54;75.22
64874;HTU21D;51367;45.204;38.576;2023-02-14T00:04:10;-0.54;75.21
64874;HTU21D;51367;45.204;38.576;2023-02-14T00:06:37;-0.51;75.23
64874;HTU21D;51367;45.204;38.576;2023-02-14T00:09:05;-0.50;75.23
64874;HTU21D;51367;45.204;38.576;2023-02-14T00:11:32;-0.47;75.23
64874;HTU21D;51367;45.204;38.576;2023-02-14T00:13:58;-0.46;75.22
64874;HTU21D;51367;45.204;38.576;2023-02-14T00:16:43;-0.46;75.18
64874;HTU21D;51367;45.204;38.576;2023-02-14T00:19:14;-0.47;75.18
64874;HTU21D;51367;45.204;38.576;2023-02-14T00:21:40;-0.49;75.22
64874;HTU21D;51367;45.204;38.576;2023-02-14T00:24:15;-0.46;75.28
64874;HTU21D;51367;45.204;38.576;2023-02-14T00:26:42;-0.45;75.31
64874;HTU21D;51367;45.204;38.576;2023-02-14T00:29:14;-0.41;75.35
64874;HTU21D;51367;45.204;38.576;2023-02-14T00:31:42;-0.38;75.41
64874;HTU21D;51367;45.204;38.576;2023-02-14T00:34:10;-0.35;75.40
64874;HTU21D;51367;45.204;38.576;2023-02-14T00:36:36;-0.28;75.36
64874;HTU21D;51367;45.204;38.576;2023-02-14T00:39:04;-0.23;75.34
64874;HTU21D;51367;45.204;38.576;2023-02-14T00:41:31;-0.17;75.31
64874;HTU21D;51367;45.204;38.576;2023-02-14T00:43:57;-0.11;75.27
64874;HTU21D;51367;45.204;38.576;2023-02-14T00:46:24;-0.07;75.24
64874;HTU21D;51367;45.204;38.576;2023-02-14T00:48:50;-0.00;75.21
64874;HTU21D;51367;45.204;38.576;2023-02-14T00:51:17;0.04;75.18
64874;HTU21D;51367;45.204;38.576;2023-02-14T00:53:45;0.08;75.15
64874;HTU21D;51367;45.204;38.576;2023-02-14T00:56:11;0.13;75.14
64874;HTU21D;51367;45.204;38.576;2023-02-14T00:58:38;0.18;75.15
64874;HTU21D;51367;45.204;38.576;2023-02-14T01:01:04;0.21;75.13
64874;HTU21D;51367;45.204;38.576;2023-02-14T01:03:31;0.27;75.14
64874;HTU21D;51367;45.204;38.576;2023-02-14T01:05:57;0.32;75.15
64874;HTU21D;51367;45.204;38.576;2023-02-14T01:08:24;0.38;75.13
64874;HTU21D;51367;45.204;38.576;2023-02-14T01:10:51;0.44;75.12
64874;HTU21D;51367;45.204;38.576;2023-02-14T01:13:18;0.50;75.09
64874;HTU21D;51367;45.204;38.576;2023-02-14T01:15:48;0.53;75.07
64874;HTU21D;51367;45.204;38.576;2023-02-14T01:18:15;0.59;75.05
64874;HTU21D;51367;45.204;38.576;2023-02-14T01:20:41;0.64;75.03
64874;HTU21D;51367;45.204;38.576;2023-02-14T01:23:07;0.67;75.02
64874;HTU21D;51367;45.204;38.576;2023-02-14T01:25:36;0.72;75.00
64874;HTU21D;51367;45.204;38.576;2023-02-14T01:28:03;0.75;74.99
64874;HTU21D;51367;45.204;38.576;2023-02-14T01:30:29;0.79;74.97
64874;HTU21D;51367;45.204;38.576;2023-02-14T01:32:55;0.82;74.99
64874;HTU21D;51367;45.204;38.576;2023-02-14T01:35:21;0.83;74.99
64874;HTU21D;51367;45.204;38.576;2023-02-14T01:37:48;0.88;74.98
64874;HTU21D;51367;45.204;38.576;2023-02-14T01:40:14;0.88;74.96
64874;HTU21D;51367;45.204;38.576;2023-02-14T01:42:42;0.91;74.96
64874;HTU21D;51367;45.204;38.576;2023-02-14T01:45:18;0.92;74.98
64874;HTU21D;51367;45.204;38.576;2023-02-14T01:47:50;0.92;75.00
64874;HTU21D;51367;45.204;38.576;2023-02-14T01:50:22;0.94;75.02
64874;HTU21D;51367;45.204;38.576;2023-02-14T01:52:54;0.95;75.05
64874;HTU21D;51367;45.204;38.576;2023-02-14T01:55:26;0.96;75.05
64874;HTU21D;51367;45.204;38.576;2023-02-14T01:57:54;0.97;75.05
64874;HTU21D;51367;45.204;38.576;2023-02-14T02:00:21;0.98;75.00
64874;HTU21D;51367;45.204;38.576;2023-02-14T02:03:07;1.01;75.02
64874;HTU21D;51367;45.204;38.576;2023-02-14T02:05:35;1.03;75.04
64874;HTU21D;51367;45.204;38.576;2023-02-14T02:08:02;1.04;75.06
64874;HTU21D;51367;45.204;38.576;2023-02-14T02:10:28;1.07;75.09
64874;HTU21D;51367;45.204;38.576;2023-02-14T02:12:55;1.09;75.11
64874;HTU21D;51367;45.204;38.576;2023-02-14T02:15:26;1.11;75.09
64874;HTU21D;51367;45.204;38.576;2023-02-14T02:18:10;1.12;75.12
64874;HTU21D;51367;45.204;38.576;2023-02-14T02:21:07;1.17;75.18
64874;HTU21D;51367;45.204;38.576;2023-02-14T02:43:22;1.24;75.15
64874;HTU21D;51367;45.204;38.576;2023-02-14T02:52:16;1.19;75.31
64874;HTU21D;51367;45.204;38.576;2023-02-14T02:55:10;1.20;75.36
64874;HTU21D;51367;45.204;38.576;2023-02-14T02:57:39;1.21;75.41
64874;HTU21D;51367;45.204;38.576;2023-02-14T03:00:08;1.22;75.44
64874;HTU21D;51367;45.204;38.576;2023-02-14T03:02:42;1.23;75.47
64874;HTU21D;51367;45.204;38.576;2023-02-14T03:05:30;1.24;75.47
64874;HTU21D;51367;45.204;38.576;2023-02-14T03:07:56;1.25;75.50
64874;HTU21D;51367;45.204;38.576;2023-02-14T03:10:25;1.27;75.54
64874;HTU21D;51367;45.204;38.576;2023-02-14T03:32:01;1.36;75.65
64874;HTU21D;51367;45.204;38.576;2023-02-14T03:37:31;1.39;75.70
64874;HTU21D;51367;45.204;38.576;2023-02-14T03:40:57;1.43;75.70
64874;HTU21D;51367;45.204;38.576;2023-02-14T03:43:16;1.46;75.70
64874;HTU21D;51367;45.204;38.576;2023-02-14T03:46:17;1.50;75.69
64874;HTU21D;51367;45.204;38.576;2023-02-14T03:48:44;1.52;75.68
64874;HTU21D;51367;45.204;38.576;2023-02-14T03:51:13;1.55;75.68
64874;HTU21D;51367;45.204;38.576;2023-02-14T03:53:43;1.57;75.70
64874;HTU21D;51367;45.204;38.576;2023-02-14T03:56:20;1.61;75.69
64874;HTU21D;51367;45.204;38.576;2023-02-14T03:58:50;1.64;75.68
64874;HTU21D;51367;45.204;38.576;2023-02-14T04:01:23;1.67;75.68
64874;HTU21D;51367;45.204;38.576;2023-02-14T04:03:51;1.68;75.68
64874;HTU21D;51367;45.204;38.576;2023-02-14T04:06:18;1.70;75.70
64874;HTU21D;51367;45.204;38.576;2023-02-14T04:08:45;1.71;75.69
64874;HTU21D;51367;45.204;38.576;2023-02-14T04:11:12;1.71;75.76
64874;HTU21D;51367;45.204;38.576;2023-02-14T04:13:38;1.73;75.74
64874;HTU21D;51367;45.204;38.576;2023-02-14T04:16:04;1.76;75.74
64874;HTU21D;51367;45.204;38.576;2023-02-14T04:18:31;1.78;75.76
64874;HTU21D;51367;45.204;38.576;2023-02-14T04:21:15;1.82;75.81
64874;HTU21D;51367;45.204;38.576;2023-02-14T04:23:42;1.83;75.78
64874;HTU21D;51367;45.204;38.576;2023-02-14T04:26:08;1.86;75.78
64874;HTU21D;51367;45.204;38.576;2023-02-14T04:28:34;1.90;75.76
64874;HTU21D;51367;45.204;38.576;2023-02-14T04:31:04;1.92;75.75
64874;HTU21D;51367;45.204;38.576;2023-02-14T04:33:31;1.94;75.72
64874;HTU21D;51367;45.204;38.576;2023-02-14T04:35:58;1.93;75.73
64874;HTU21D;51367;45.204;38.576;2023-02-14T04:38:24;1.93;75.74
64874;HTU21D;51367;45.204;38.576;2023-02-14T04:40:50;1.93;75.79
64874;HTU21D;51367;45.204;38.576;2023-02-14T04:43:17;1.95;75.83
64874;HTU21D;51367;45.204;38.576;2023-02-14T04:45:44;1.96;75.85
64874;HTU21D;51367;45.204;38.576;2023-02-14T04:48:10;1.99;75.89
64874;HTU21D;51367;45.204;38.576;2023-02-14T04:50:36;2.01;75.91
64874;HTU21D;51367;45.204;38.576;2023-02-14T04:53:02;2.05;75.92
64874;HTU21D;51367;45.204;38.576;2023-02-14T04:55:27;2.10;75.92
64874;HTU21D;51367;45.204;38.576;2023-02-14T04:57:53;2.14;75.99
64874;HTU21D;51367;45.204;38.576;2023-02-14T05:00:20;2.21;75.93
64874;HTU21D;51367;45.204;38.576;2023-02-14T05:02:46;2.27;75.93
64874;HTU21D;51367;45.204;38.576;2023-02-14T05:05:12;2.34;75.89
64874;HTU21D;51367;45.204;38.576;2023-02-14T05:07:38;2.39;75.86
64874;HTU21D;51367;45.204;38.576;2023-02-14T05:10:05;2.46;75.83
64874;HTU21D;51367;45.204;38.576;2023-02-14T05:12:31;2.52;75.78
64874;HTU21D;51367;45.204;38.576;2023-02-14T05:14:57;2.58;75.84
64874;HTU21D;51367;45.204;38.576;2023-02-14T05:17:23;2.67;75.81
64874;HTU21D;51367;45.204;38.576;2023-02-14T05:19:49;2.76;75.81
64874;HTU21D;51367;45.204;38.576;2023-02-14T05:22:14;2.85;75.76
64874;HTU21D;51367;45.204;38.576;2023-02-14T05:24:40;2.94;75.70
64874;HTU21D;51367;45.204;38.576;2023-02-14T05:27:06;3.01;75.69
64874;HTU21D;51367;45.204;38.576;2023-02-14T05:29:32;3.10;75.67
64874;HTU21D;51367;45.204;38.576;2023-02-14T05:31:58;3.17;75.60
64874;HTU21D;51367;45.204;38.576;2023-02-14T05:34:24;3.24;75.56
64874;HTU21D;51367;45.204;38.576;2023-02-14T05:36:50;3.27;75.57
64874;HTU21D;51367;45.204;38.576;2023-02-14T05:39:16;3.29;75.56
64874;HTU21D;51367;45.204;38.576;2023-02-14T05:41:41;3.34;75.56
64874;HTU21D;51367;45.204;38.576;2023-02-14T05:44:07;3.38;75.57
64874;HTU21D;51367;45.204;38.576;2023-02-14T05:46:33;3.40;75.60
64874;HTU21D;51367;45.204;38.576;2023-02-14T05:48:59;3.43;75.63
64874;HTU21D;51367;45.204;38.576;2023-02-14T05:51:25;3.46;75.63
64874;HTU21D;51367;45.204;38.576;2023-02-14T05:53:51;3.50;75.65
64874;HTU21D;51367;45.204;38.576;2023-02-14T05:56:17;3.54;75.65
64874;HTU21D;51367;45.204;38.576;2023-02-14T05:58:43;3.56;75.69
64874;HTU21D;51367;45.204;38.576;2023-02-14T06:01:09;3.59;75.67
64874;HTU21D;51367;45.204;38.576;2023-02-14T06:03:35;3.61;75.64
64874;HTU21D;51367;45.204;38.576;2023-02-14T06:06:00;3.63;75.64
64874;HTU21D;51367;45.204;38.576;2023-02-14T06:08:26;3.65;75.63
64874;HTU21D;51367;45.204;38.576;2023-02-14T06:10:52;3.67;75.63
64874;HTU21D;51367;45.204;38.576;2023-02-14T06:13:18;3.68;75.63
64874;HTU21D;51367;45.204;38.576;2023-02-14T06:15:44;3.70;75.64
64874;HTU21D;51367;45.204;38.576;2023-02-14T06:18:10;3.72;75.63
64874;HTU21D;51367;45.204;38.576;2023-02-14T06:20:36;3.74;75.64
64874;HTU21D;51367;45.204;38.576;2023-02-14T06:23:02;3.80;75.60
64874;HTU21D;51367;45.204;38.576;2023-02-14T06:25:29;3.86;75.54
64874;HTU21D;51367;45.204;38.576;2023-02-14T06:27:56;3.91;75.47
64874;HTU21D;51367;45.204;38.576;2023-02-14T06:30:23;3.95;75.39
64874;HTU21D;51367;45.204;38.576;2023-02-14T06:32:49;4.00;75.28
64874;HTU21D;51367;45.204;38.576;2023-02-14T06:35:15;4.05;75.27
64874;HTU21D;51367;45.204;38.576;2023-02-14T06:37:41;4.09;75.21
64874;HTU21D;51367;45.204;38.576;2023-02-14T06:40:09;4.15;75.14
64874;HTU21D;51367;45.204;38.576;2023-02-14T06:42:35;4.21;75.02
64874;HTU21D;51367;45.204;38.576;2023-02-14T06:45:01;4.23;74.97
64874;HTU21D;51367;45.204;38.576;2023-02-14T06:47:28;4.28;74.92
64874;HTU21D;51367;45.204;38.576;2023-02-14T06:49:54;4.33;74.91
64874;HTU21D;51367;45.204;38.576;2023-02-14T06:52:20;4.36;74.81
64874;HTU21D;51367;45.204;38.576;2023-02-14T06:54:46;4.38;74.82
64874;HTU21D;51367;45.204;38.576;2023-02-14T06:57:12;4.41;74.83
64874;HTU21D;51367;45.204;38.576;2023-02-14T06:59:38;4.43;74.79
64874;HTU21D;51367;45.204;38.576;2023-02-14T07:02:04;4.45;74.67
64874;HTU21D;51367;45.204;38.576;2023-02-14T07:04:30;4.46;74.67
64874;HTU21D;51367;45.204;38.576;2023-02-14T07:06:56;4.47;74.65
64874;HTU21D;51367;45.204;38.576;2023-02-14T07:09:22;4.47;74.52
64874;HTU21D;51367;45.204;38.576;2023-02-14T07:11:48;4.47;74.53
64874;HTU21D;51367;45.204;38.576;2023-02-14T07:14:14;4.48;74.50
64874;HTU21D;51367;45.204;38.576;2023-02-14T07:16:40;4.47;74.45
64874;HTU21D;51367;45.204;38.576;2023-02-14T07:19:06;4.48;74.35
64874;HTU21D;51367;45.204;38.576;2023-02-14T07:21:32;4.45;74.35
64874;HTU21D;51367;45.204;38.576;2023-02-14T07:23:58;4.46;74.22
64874;HTU21D;51367;45.204;38.576;2023-02-14T07:26:24;4.44;74.27
64874;HTU21D;51367;45.204;38.576;2023-02-14T07:28:50;4.42;74.29
64874;HTU21D;51367;45.204;38.576;2023-02-14T07:31:17;4.43;74.31
64874;HTU21D;51367;45.204;38.576;2023-02-14T07:33:44;4.43;74.15
64874;HTU21D;51367;45.204;38.576;2023-02-14T07:36:10;4.41;74.20
64874;HTU21D;51367;45.204;38.576;2023-02-14T07:38:36;4.41;74.21
64874;HTU21D;51367;45.204;38.576;2023-02-14T07:41:02;4.39;74.18
64874;HTU21D;51367;45.204;38.576;2023-02-14T07:43:28;4.39;74.15
64874;HTU21D;51367;45.204;38.576;2023-02-14T07:45:55;4.37;74.18
64874;HTU21D;51367;45.204;38.576;2023-02-14T07:48:21;4.36;74.25
64874;HTU21D;51367;45.204;38.576;2023-02-14T07:50:47;4.35;74.29
64874;HTU21D;51367;45.204;38.576;2023-02-14T07:53:13;4.34;74.35
64874;HTU21D;51367;45.204;38.576;2023-02-14T07:55:39;4.31;74.41
64874;HTU21D;51367;45.204;38.576;2023-02-14T07:58:05;4.30;74.47
64874;HTU21D;51367;45.204;38.576;2023-02-14T08:00:31;4.28;74.57
64874;HTU21D;51367;45.204;38.576;2023-02-14T08:02:57;4.26;74.64
64874;HTU21D;51367;45.204;38.576;2023-02-14T08:05:23;4.26;74.70
64874;HTU21D;51367;45.204;38.576;2023-02-14T08:07:49;4.24;74.77
64874;HTU21D;51367;45.204;38.576;2023-02-14T08:10:15;4.23;74.85
64874;HTU21D;51367;45.204;38.576;2023-02-14T08:12:41;4.23;74.89
64874;HTU21D;51367;45.204;38.576;2023-02-14T08:15:31;4.23;74.97
64874;HTU21D;51367;45.204;38.576;2023-02-14T08:18:17;4.23;74.99
64874;HTU21D;51367;45.204;38.576;2023-02-14T08:20:44;4.23;75.03
64874;HTU21D;51367;45.204;38.576;2023-02-14T08:23:11;4.23;75.12
64874;HTU21D;51367;45.204;38.576;2023-02-14T08:25:37;4.22;75.18
64874;HTU21D;51367;45.204;38.576;2023-02-14T08:28:03;4.20;75.23
64874;HTU21D;51367;45.204;38.576;2023-02-14T08:30:30;4.16;75.47
64874;HTU21D;51367;45.204;38.576;2023-02-14T08:32:56;4.14;75.56
64874;HTU21D;51367;45.204;38.576;2023-02-14T08:35:22;4.10;75.55
64874;HTU21D;51367;45.204;38.576;2023-02-14T08:37:48;4.08;75.67
64874;HTU21D;51367;45.204;38.576;2023-02-14T08:40:14;4.06;75.76
64874;HTU21D;51367;45.204;38.576;2023-02-14T08:42:40;4.05;75.78
64874;HTU21D;51367;45.204;38.576;2023-02-14T08:45:06;4.04;75.86
64874;HTU21D;51367;45.204;38.576;2023-02-14T08:47:33;4.01;76.05
64874;HTU21D;51367;45.204;38.576;2023-02-14T08:50:02;3.99;76.15
64874;HTU21D;51367;45.204;38.576;2023-02-14T08:52:28;4.00;76.27
64874;HTU21D;51367;45.204;38.576;2023-02-14T08:54:54;3.99;76.50
64874;HTU21D;51367;45.204;38.576;2023-02-14T08:57:19;3.97;76.60
64874;HTU21D;51367;45.204;38.576;2023-02-14T08:59:45;3.93;77.08
64874;HTU21D;51367;45.204;38.576;2023-02-14T09:02:14;3.91;76.80
64874;HTU21D;51367;45.204;38.576;2023-02-14T09:04:43;3.91;76.79
64874;HTU21D;51367;45.204;38.576;2023-02-14T09:07:13;3.90;76.84
64874;HTU21D;51367;45.204;38.576;2023-02-14T09:09:39;3.90;77.01
64874;HTU21D;51367;45.204;38.576;2023-02-14T09:12:07;3.88;76.86
64874;HTU21D;51367;45.204;38.576;2023-02-14T09:14:38;3.87;76.93
64874;HTU21D;51367;45.204;38.576;2023-02-14T09:17:05;3.87;77.25
64874;HTU21D;51367;45.204;38.576;2023-02-14T09:19:32;3.87;77.25
64874;HTU21D;51367;45.204;38.576;2023-02-14T09:21:58;3.88;77.33
64874;HTU21D;51367;45.204;38.576;2023-02-14T09:24:25;3.88;77.66
64874;HTU21D;51367;45.204;38.576;2023-02-14T09:26:54;3.85;77.90
64874;HTU21D;51367;45.204;38.576;2023-02-14T09:29:24;3.83;77.76
64874;HTU21D;51367;45.204;38.576;2023-02-14T09:31:55;3.79;78.08
64874;HTU21D;51367;45.204;38.576;2023-02-14T09:34:22;3.79;77.98
64874;HTU21D;51367;45.204;38.576;2023-02-14T09:36:49;3.78;78.05
64874;HTU21D;51367;45.204;38.576;2023-02-14T09:39:15;3.78;78.18
64874;HTU21D;51367;45.204;38.576;2023-02-14T09:41:59;3.79;78.49
64874;HTU21D;51367;45.204;38.576;2023-02-14T09:44:47;3.79;78.61
64874;HTU21D;51367;45.204;38.576;2023-02-14T09:50:43;3.78;78.81
64874;HTU21D;51367;45.204;38.576;2023-02-14T09:58:25;3.78;79.07
64874;HTU21D;51367;45.204;38.576;2023-02-14T10:01:22;3.78;78.96
64874;HTU21D;51367;45.204;38.576;2023-02-14T10:04:04;3.78;79.11
64874;HTU21D;51367;45.204;38.576;2023-02-14T10:06:47;3.77;79.14
64874;HTU21D;51367;45.204;38.576;2023-02-14T10:12:45;3.75;79.37
64874;HTU21D;51367;45.204;38.576;2023-02-14T10:15:19;3.75;79.40
64874;HTU21D;51367;45.204;38.576;2023-02-14T10:20:41;3.75;79.55
64874;HTU21D;51367;45.204;38.576;2023-02-14T10:23:40;3.78;79.63
64874;HTU21D;51367;45.204;38.576;2023-02-14T10:26:15;3.83;79.82
64874;HTU21D;51367;45.204;38.576;2023-02-14T10:28:47;3.87;79.85
64874;HTU21D;51367;45.204;38.576;2023-02-14T10:31:23;3.90;79.83
64874;HTU21D;51367;45.204;38.576;2023-02-14T10:45:41;4.10;80.78
64874;HTU21D;51367;45.204;38.576;2023-02-14T10:50:55;4.13;81.02
64874;HTU21D;51367;45.204;38.576;2023-02-14T10:56:20;4.15;80.91
64874;HTU21D;51367;45.204;38.576;2023-02-14T10:58:49;4.18;81.13
64874;HTU21D;51367;45.204;38.576;2023-02-14T11:01:17;4.21;81.23
64874;HTU21D;51367;45.204;38.576;2023-02-14T11:03:52;4.24;81.19
64874;HTU21D;51367;45.204;38.576;2023-02-14T11:06:19;4.30;81.09
64874;HTU21D;51367;45.204;38.576;2023-02-14T11:08:45;4.34;81.13
64874;HTU21D;51367;45.204;38.576;2023-02-14T11:11:23;4.35;81.04
64874;HTU21D;51367;45.204;38.576;2023-02-14T11:13:50;4.37;81.06
64874;HTU21D;51367;45.204;38.576;2023-02-14T11:16:31;4.34;80.96
64874;HTU21D;51367;45.204;38.576;2023-02-14T11:21:42;4.30;81.01
64874;HTU21D;51367;45.204;38.576;2023-02-14T11:24:34;4.27;80.97
64874;HTU21D;51367;45.204;38.576;2023-02-14T11:27:04;4.23;80.97
64874;HTU21D;51367;45.204;38.576;2023-02-14T11:29:41;4.22;81.03
64874;HTU21D;51367;45.204;38.576;2023-02-14T11:32:12;4.21;81.01
64874;HTU21D;51367;45.204;38.576;2023-02-14T11:37:25;4.20;80.98
64874;HTU21D;51367;45.204;38.576;2023-02-14T11:39:53;4.19;80.99
64874;HTU21D;51367;45.204;38.576;2023-02-14T11:42:44;4.20;80.98
64874;HTU21D;51367;45.204;38.576;2023-02-14T11:45:34;4.20;80.94
64874;HTU21D;51367;45.204;38.576;2023-02-14T11:48:17;4.21;80.88
64874;HTU21D;51367;45.204;38.576;2023-02-14T11:51:04;4.22;80.82
64874;HTU21D;51367;45.204;38.576;2023-02-14T11:53:46;4.27;80.75
64874;HTU21D;51367;45.204;38.576;2023-02-14T11:56:13;4.24;80.64
64874;HTU21D;51367;45.204;38.576;2023-02-14T12:01:26;4.15;80.53
64874;HTU21D;51367;45.204;38.576;2023-02-14T12:03:55;4.08;80.53
64874;HTU21D;51367;45.204;38.576;2023-02-14T12:06:28;4.03;80.56
64874;HTU21D;51367;45.204;38.576;2023-02-14T12:09:30;3.98;80.61
64874;HTU21D;51367;45.204;38.576;2023-02-14T12:11:57;3.94;80.59
64874;HTU21D;51367;45.204;38.576;2023-02-14T12:14:27;3.89;80.62
64874;HTU21D;51367;45.204;38.576;2023-02-14T12:17:02;3.85;80.67
64874;HTU21D;51367;45.204;38.576;2023-02-14T12:20:11;3.82;80.71
64874;HTU21D;51367;45.204;38.576;2023-02-14T12:22:45;3.78;80.68
64874;HTU21D;51367;45.204;38.576;2023-02-14T12:25:24;3.76;80.68
64874;HTU21D;51367;45.204;38.576;2023-02-14T12:27:59;3.76;80.67
64874;HTU21D;51367;45.204;38.576;2023-02-14T12:30:32;3.76;80.66
64874;HTU21D;51367;45.204;38.576;2023-02-14T12:32:59;3.74;80.66
64874;HTU21D;51367;45.204;38.576;2023-02-14T12:47:19;3.64;80.53
64874;HTU21D;51367;45.204;38.576;2023-02-14T13:17:25;3.21;80.69
64874;HTU21D;51367;45.204;38.576;2023-02-14T13:22:37;3.15;80.76
64874;HTU21D;51367;45.204;38.576;2023-02-14T13:25:12;3.15;80.79
64874;HTU21D;51367;45.204;38.576;2023-02-14T13:27:41;3.15;80.81
64874;HTU21D;51367;45.204;38.576;2023-02-14T13:30:26;3.13;80.81
64874;HTU21D;51367;45.204;38.576;2023-02-14T13:32:53;3.11;80.83
64874;HTU21D;51367;45.204;38.576;2023-02-14T13:35:22;3.11;80.83
64874;HTU21D;51367;45.204;38.576;2023-02-14T13:38:02;3.09;80.89
64874;HTU21D;51367;45.204;38.576;2023-02-14T13:40:30;3.05;80.91
64874;HTU21D;51367;45.204;38.576;2023-02-14T13:43:00;3.04;80.96
64874;HTU21D;51367;45.204;38.576;2023-02-14T13:48:12;3.02;81.06
64874;HTU21D;51367;45.204;38.576;2023-02-14T13:53:12;3.00;81.11
64874;HTU21D;51367;45.204;38.576;2023-02-14T13:55:49;2.96;81.17
64874;HTU21D;51367;45.204;38.576;2023-02-14T13:58:20;2.94;81.24
64874;HTU21D;51367;45.204;38.576;2023-02-14T14:00:49;2.90;81.29
64874;HTU21D;51367;45.204;38.576;2023-02-14T14:11:02;2.89;81.41
64874;HTU21D;51367;45.204;38.576;2023-02-14T14:13:56;2.87;81.43
64874;HTU21D;51367;45.204;38.576;2023-02-14T14:18:53;2.88;81.49
64874;HTU21D;51367;45.204;38.576;2023-02-14T14:21:43;2.89;81.52
64874;HTU21D;51367;45.204;38.576;2023-02-14T14:29:41;2.94;81.52
64874;HTU21D;51367;45.204;38.576;2023-02-14T14:37:30;2.96;81.49
64874;HTU21D;51367;45.204;38.576;2023-02-14T14:40:02;2.96;81.52
64874;HTU21D;51367;45.204;38.576;2023-02-14T14:42:33;2.96;81.60
64874;HTU21D;51367;45.204;38.576;2023-02-14T14:45:25;2.96;81.62
64874;HTU21D;51367;45.204;38.576;2023-02-14T14:47:54;2.98;81.62
64874;HTU21D;51367;45.204;38.576;2023-02-14T14:50:26;3.00;81.65
64874;HTU21D;51367;45.204;38.576;2023-02-14T14:52:56;3.01;81.66
64874;HTU21D;51367;45.204;38.576;2023-02-14T14:55:24;3.02;81.66
64874;HTU21D;51367;45.204;38.576;2023-02-14T14:57:54;3.04;81.65
64874;HTU21D;51367;45.204;38.576;2023-02-14T15:00:27;3.06;81.66
64874;HTU21D;51367;45.204;38.576;2023-02-14T15:03:19;3.08;81.68
64874;HTU21D;51367;45.204;38.576;2023-02-14T15:05:48;3.10;81.69
64874;HTU21D;51367;45.204;38.576;2023-02-14T15:11:09;3.14;81.68
64874;HTU21D;51367;45.204;38.576;2023-02-14T15:16:59;3.15;81.66
64874;HTU21D;51367;45.204;38.576;2023-02-14T15:19:51;3.18;81.67
64874;HTU21D;51367;45.204;38.576;2023-02-14T15:24:58;3.20;81.64
64874;HTU21D;51367;45.204;38.576;2023-02-14T15:27:26;3.20;81.63
64874;HTU21D;51367;45.204;38.576;2023-02-14T15:29:54;3.21;81.65
64874;HTU21D;51367;45.204;38.576;2023-02-14T15:32:21;3.23;81.64
64874;HTU21D;51367;45.204;38.576;2023-02-14T15:34:48;3.25;81.65
64874;HTU21D;51367;45.204;38.576;2023-02-14T15:37:14;3.27;81.66
64874;HTU21D;51367;45.204;38.576;2023-02-14T15:39:49;3.28;81.65
64874;HTU21D;51367;45.204;38.576;2023-02-14T15:42:23;3.28;81.66
64874;HTU21D;51367;45.204;38.576;2023-02-14T15:45:18;3.30;81.67
64874;HTU21D;51367;45.204;38.576;2023-02-14T15:47:49;3.30;81.65
64874;HTU21D;51367;45.204;38.576;2023-02-14T15:52:49;3.31;81.65
64874;HTU21D;51367;45.204;38.576;2023-02-14T15:55:19;3.33;81.66
64874;HTU21D;51367;45.204;38.576;2023-02-14T15:57:54;3.33;81.68
64874;HTU21D;51367;45.204;38.576;2023-02-14T16:00:22;3.33;81.70
64874;HTU21D;51367;45.204;38.576;2023-02-14T16:03:03;3.31;81.72
64874;HTU21D;51367;45.204;38.576;2023-02-14T16:05:30;3.31;81.76
64874;HTU21D;51367;45.204;38.576;2023-02-14T16:08:21;3.30;81.78
64874;HTU21D;51367;45.204;38.576;2023-02-14T16:13:34;3.29;81.78
64874;HTU21D;51367;45.204;38.576;2023-02-14T16:16:11;3.28;81.80
64874;HTU21D;51367;45.204;38.576;2023-02-14T16:21:27;3.26;81.81
64874;HTU21D;51367;45.204;38.576;2023-02-14T16:26:38;3.24;81.83
64874;HTU21D;51367;45.204;38.576;2023-02-14T16:29:05;3.18;81.84
64874;HTU21D;51367;45.204;38.576;2023-02-14T16:31:32;3.17;81.84
64874;HTU21D;51367;45.204;38.576;2023-02-14T16:33:59;3.16;81.88
64874;HTU21D;51367;45.204;38.576;2023-02-14T16:36:29;3.14;81.91
64874;HTU21D;51367;45.204;38.576;2023-02-14T16:38:56;3.13;81.95
64874;HTU21D;51367;45.204;38.576;2023-02-14T16:41:27;3.12;81.98
64874;HTU21D;51367;45.204;38.576;2023-02-14T16:43:55;3.12;81.96
64874;HTU21D;51367;45.204;38.576;2023-02-14T16:46:24;3.11;81.95
64874;HTU21D;51367;45.204;38.576;2023-02-14T16:48:50;3.10;81.94
64874;HTU21D;51367;45.204;38.576;2023-02-14T16:51:23;3.09;81.95
64874;HTU21D;51367;45.204;38.576;2023-02-14T16:53:50;3.09;81.97
64874;HTU21D;51367;45.204;38.576;2023-02-14T16:56:24;3.08;81.97
64874;HTU21D;51367;45.204;38.576;2023-02-14T16:58:52;3.06;81.99
64874;HTU21D;51367;45.204;38.576;2023-02-14T17:01:18;3.04;81.97
64874;HTU21D;51367;45.204;38.576;2023-02-14T17:03:44;3.03;81.97
64874;HTU21D;51367;45.204;38.576;2023-02-14T17:06:14;3.02;81.99
64874;HTU21D;51367;45.204;38.576;2023-02-14T17:08:42;3.00;81.97
64874;HTU21D;51367;45.204;38.576;2023-02-14T17:11:08;2.96;81.98
64874;HTU21D;51367;45.204;38.576;2023-02-14T17:13:36;2.94;82.01
64874;HTU21D;51367;45.204;38.576;2023-02-14T17:16:04;2.89;81.99
64874;HTU21D;51367;45.204;38.576;2023-02-14T17:18:32;2.85;81.99
64874;HTU21D;51367;45.204;38.576;2023-02-14T17:20:59;2.81;82.00
64874;HTU21D;51367;45.204;38.576;2023-02-14T17:23:25;2.75;82.01
64874;HTU21D;51367;45.204;38.576;2023-02-14T17:25:51;2.70;82.06
64874;HTU21D;51367;45.204;38.576;2023-02-14T17:28:17;2.66;82.07
64874;HTU21D;51367;45.204;38.576;2023-02-14T17:30:43;2.61;82.07
64874;HTU21D;51367;45.204;38.576;2023-02-14T17:33:09;2.57;82.10
64874;HTU21D;51367;45.204;38.576;2023-02-14T17:35:37;2.53;82.13
64874;HTU21D;51367;45.204;38.576;2023-02-14T17:38:03;2.49;82.15
64874;HTU21D;51367;45.204;38.576;2023-02-14T17:40:30;2.45;82.20
64874;HTU21D;51367;45.204;38.576;2023-02-14T17:42:56;2.41;82.20
64874;HTU21D;51367;45.204;38.576;2023-02-14T17:45:22;2.39;82.23
64874;HTU21D;51367;45.204;38.576;2023-02-14T17:47:48;2.36;82.24
64874;HTU21D;51367;45.204;38.576;2023-02-14T17:50:14;2.34;82.24
64874;HTU21D;51367;45.204;38.576;2023-02-14T17:52:41;2.32;82.22
64874;HTU21D;51367;45.204;38.576;2023-02-14T17:55:08;2.29;82.25
64874;HTU21D;51367;45.204;38.576;2023-02-14T17:57:35;2.28;82.26
64874;HTU21D;51367;45.204;38.576;2023-02-14T18:00:03;2.27;82.26
64874;HTU21D;51367;45.204;38.576;2023-02-14T18:02:38;2.24;82.25
64874;HTU21D;51367;45.204;38.576;2023-02-14T18:05:05;2.23;82.24
64874;HTU21D;51367;45.204;38.576;2023-02-14T18:07:32;2.21;82.28
64874;HTU21D;51367;45.204;38.576;2023-02-14T18:09:58;2.22;82.27
64874;HTU21D;51367;45.204;38.576;2023-02-14T18:12:24;2.20;82.26
64874;HTU21D;51367;45.204;38.576;2023-02-14T18:14:50;2.20;82.27
64874;HTU21D;51367;45.204;38.576;2023-02-14T18:17:18;2.17;82.26
64874;HTU21D;51367;45.204;38.576;2023-02-14T18:19:43;2.16;82.24
64874;HTU21D;51367;45.204;38.576;2023-02-14T18:22:11;2.16;82.24
64874;HTU21D;51367;45.204;38.576;2023-02-14T18:24:37;2.16;82.24
64874;HTU21D;51367;45.204;38.576;2023-02-14T18:27:03;2.15;82.25
64874;HTU21D;51367;45.204;38.576;2023-02-14T18:29:31;2.13;82.25